sensor_id;sensor_type;location;lat;lon;timestamp;P1;durP1;ratioP1;P2;durP2;ratioP2
19848;SDS011;10085;51.120;6.956;2022-10-31T00:03:07;7.95;;;4.32;;
19848;SDS011;10085;51.120;6.956;2022-10-31T00:08:11;6.57;;;4.28;;
19848;SDS011;10085;51.120;6.956;2022-10-31T00:13:14;8.68;;;4.10;;
19848;SDS011;10085;51.120;6.956;2022-10-31T00:18:17;8.18;;;4.20;;
19848;SDS011;10085;51.120;6.956;2022-10-31T00:23:21;6.90;;;4.20;;
19848;SDS011;10085;51.120;6.956;2022-10-31T00:28:24;8.07;;;4.50;;
19848;SDS011;10085;51.120;6.956;2022-10-31T00:33:26;8.18;;;4.45;;
19848;SDS011;10085;51.120;6.956;2022-10-31T00:38:31;7.20;;;4.45;;
19848;SDS011;10085;51.120;6.956;2022-10-31T00:43:34;7.22;;;4.40;;
19848;SDS011;10085;51.120;6.956;2022-10-31T00:48:36;7.93;;;4.13;;
19848;SDS011;10085;51.120;6.956;2022-10-31T00:53:41;7.30;;;4.28;;
19848;SDS011;10085;51.120;6.956;2022-10-31T00:58:43;6.30;;;4.30;;
19848;SDS011;10085;51.120;6.956;2022-10-31T01:03:46;7.85;;;4.43;;
19848;SDS011;10085;51.120;6.956;2022-10-31T01:08:50;8.43;;;4.38;;
19848;SDS011;10085;51.120;6.956;2022-10-31T01:13:53;9.00;;;4.97;;
19848;SDS011;10085;51.120;6.956;2022-10-31T01:18:56;7.53;;;4.65;;
19848;SDS011;10085;51.120;6.956;2022-10-31T01:24:02;7.32;;;4.40;;
19848;SDS011;10085;51.120;6.956;2022-10-31T01:29:06;10.75;;;4.90;;
19848;SDS011;10085;51.120;6.956;2022-10-31T01:34:10;7.18;;;4.53;;
19848;SDS011;10085;51.120;6.956;2022-10-31T01:39:17;7.18;;;4.65;;
19848;SDS011;10085;51.120;6.956;2022-10-31T01:49:59;7.63;;;4.53;;
19848;SDS011;10085;51.120;6.956;2022-10-31T01:55:05;8.32;;;4.40;;
19848;SDS011;10085;51.120;6.956;2022-10-31T02:00:10;6.80;;;4.30;;
19848;SDS011;10085;51.120;6.956;2022-10-31T02:05:15;10.30;;;4.90;;
19848;SDS011;10085;51.120;6.956;2022-10-31T02:10:21;7.57;;;4.88;;
19848;SDS011;10085;51.120;6.956;2022-10-31T02:15:26;6.72;;;4.15;;
19848;SDS011;10085;51.120;6.956;2022-10-31T02:20:30;8.68;;;4.63;;
19848;SDS011;10085;51.120;6.956;2022-10-31T02:25:45;8.65;;;4.97;;
19848;SDS011;10085;51.120;6.956;2022-10-31T02:31:01;6.15;;;4.50;;
19848;SDS011;10085;51.120;6.956;2022-10-31T02:36:16;7.28;;;4.75;;
19848;SDS011;10085;51.120;6.956;2022-10-31T02:41:25;7.20;;;4.60;;
19848;SDS011;10085;51.120;6.956;2022-10-31T02:46:39;6.75;;;4.28;;
19848;SDS011;10085;51.120;6.956;2022-10-31T02:51:48;8.18;;;4.60;;
19848;SDS011;10085;51.120;6.956;2022-10-31T02:57:00;6.93;;;4.80;;
19848;SDS011;10085;51.120;6.956;2022-10-31T03:02:06;9.40;;;4.97;;
19848;SDS011;10085;51.120;6.956;2022-10-31T03:07:15;8.07;;;4.75;;
19848;SDS011;10085;51.120;6.956;2022-10-31T03:12:25;6.85;;;4.60;;
19848;SDS011;10085;51.120;6.956;2022-10-31T03:17:31;6.72;;;4.22;;
19848;SDS011;10085;51.120;6.956;2022-10-31T03:22:36;7.78;;;4.63;;
19848;SDS011;10085;51.120;6.956;2022-10-31T03:27:41;8.70;;;4.32;;
19848;SDS011;10085;51.120;6.956;2022-10-31T03:32:47;6.68;;;4.40;;
19848;SDS011;10085;51.120;6.956;2022-10-31T03:37:51;9.63;;;5.00;;
19848;SDS011;10085;51.120;6.956;2022-10-31T03:42:57;8.07;;;4.72;;
19848;SDS011;10085;51.120;6.956;2022-10-31T03:48:02;9.20;;;4.68;;
19848;SDS011;10085;51.120;6.956;2022-10-31T03:53:08;8.60;;;5.22;;
19848;SDS011;10085;51.120;6.956;2022-10-31T03:58:17;7.50;;;4.70;;
19848;SDS011;10085;51.120;6.956;2022-10-31T04:03:23;8.15;;;5.03;;
19848;SDS011;10085;51.120;6.956;2022-10-31T04:08:30;7.38;;;4.80;;
19848;SDS011;10085;51.120;6.956;2022-10-31T04:13:36;8.90;;;5.20;;
19848;SDS011;10085;51.120;6.956;2022-10-31T04:18:47;7.93;;;4.80;;
19848;SDS011;10085;51.120;6.956;2022-10-31T04:23:50;10.05;;;5.15;;
19848;SDS011;10085;51.120;6.956;2022-10-31T04:29:00;7.57;;;4.72;;
19848;SDS011;10085;51.120;6.956;2022-10-31T04:34:02;9.90;;;4.95;;
19848;SDS011;10085;51.120;6.956;2022-10-31T04:39:05;7.68;;;4.93;;
19848;SDS011;10085;51.120;6.956;2022-10-31T04:44:17;7.80;;;4.70;;
19848;SDS011;10085;51.120;6.956;2022-10-31T04:49:24;8.90;;;5.15;;
19848;SDS011;10085;51.120;6.956;2022-10-31T04:54:27;6.43;;;4.40;;
19848;SDS011;10085;51.120;6.956;2022-10-31T04:59:49;8.50;;;5.03;;
19848;SDS011;10085;51.120;6.956;2022-10-31T05:04:52;6.95;;;4.68;;
19848;SDS011;10085;51.120;6.956;2022-10-31T05:09:55;10.48;;;5.28;;
19848;SDS011;10085;51.120;6.956;2022-10-31T05:14:59;8.52;;;5.05;;
19848;SDS011;10085;51.120;6.956;2022-10-31T05:20:34;8.60;;;4.65;;
19848;SDS011;10085;51.120;6.956;2022-10-31T05:26:03;8.85;;;4.95;;
19848;SDS011;10085;51.120;6.956;2022-10-31T05:31:08;6.78;;;4.43;;
19848;SDS011;10085;51.120;6.956;2022-10-31T05:36:11;7.32;;;4.70;;
19848;SDS011;10085;51.120;6.956;2022-10-31T05:41:32;8.68;;;5.18;;
19848;SDS011;10085;51.120;6.956;2022-10-31T05:46:45;8.13;;;5.13;;
19848;SDS011;10085;51.120;6.956;2022-10-31T05:52:06;8.57;;;4.90;;
19848;SDS011;10085;51.120;6.956;2022-10-31T05:57:24;8.90;;;4.80;;
19848;SDS011;10085;51.120;6.956;2022-10-31T06:02:28;8.43;;;5.00;;
19848;SDS011;10085;51.120;6.956;2022-10-31T06:07:56;8.50;;;5.00;;
19848;SDS011;10085;51.120;6.956;2022-10-31T06:12:59;7.75;;;4.65;;
19848;SDS011;10085;51.120;6.956;2022-10-31T06:18:09;7.68;;;4.88;;
19848;SDS011;10085;51.120;6.956;2022-10-31T06:23:24;7.72;;;4.55;;
19848;SDS011;10085;51.120;6.956;2022-10-31T06:28:41;7.32;;;5.03;;
19848;SDS011;10085;51.120;6.956;2022-10-31T06:33:57;7.82;;;4.82;;
19848;SDS011;10085;51.120;6.956;2022-10-31T06:39:00;11.25;;;4.38;;
19848;SDS011;10085;51.120;6.956;2022-10-31T06:44:04;6.47;;;4.35;;
19848;SDS011;10085;51.120;6.956;2022-10-31T06:49:22;13.05;;;4.70;;
19848;SDS011;10085;51.120;6.956;2022-10-31T06:54:30;6.90;;;4.32;;
19848;SDS011;10085;51.120;6.956;2022-10-31T06:59:33;8.70;;;5.03;;
19848;SDS011;10085;51.120;6.956;2022-10-31T07:05:10;7.18;;;4.68;;
19848;SDS011;10085;51.120;6.956;2022-10-31T07:10:12;6.35;;;4.20;;
19848;SDS011;10085;51.120;6.956;2022-10-31T07:15:24;7.28;;;4.70;;
19848;SDS011;10085;51.120;6.956;2022-10-31T07:20:29;8.63;;;4.53;;
19848;SDS011;10085;51.120;6.956;2022-10-31T07:25:32;7.30;;;4.25;;
19848;SDS011;10085;51.120;6.956;2022-10-31T07:30:42;10.10;;;4.88;;
19848;SDS011;10085;51.120;6.956;2022-10-31T07:35:48;6.20;;;4.50;;
19848;SDS011;10085;51.120;6.956;2022-10-31T07:40:55;8.55;;;4.20;;
19848;SDS011;10085;51.120;6.956;2022-10-31T07:45:59;12.82;;;4.80;;
19848;SDS011;10085;51.120;6.956;2022-10-31T07:51:22;6.60;;;4.35;;
19848;SDS011;10085;51.120;6.956;2022-10-31T07:56:57;14.10;;;6.57;;
19848;SDS011;10085;51.120;6.956;2022-10-31T08:02:00;13.85;;;7.53;;
19848;SDS011;10085;51.120;6.956;2022-10-31T08:07:06;14.43;;;9.15;;
19848;SDS011;10085;51.120;6.956;2022-10-31T08:12:11;14.13;;;9.80;;
19848;SDS011;10085;51.120;6.956;2022-10-31T08:17:14;13.77;;;10.93;;
19848;SDS011;10085;51.120;6.956;2022-10-31T08:22:26;16.38;;;11.23;;
19848;SDS011;10085;51.120;6.956;2022-10-31T08:27:28;17.02;;;11.23;;
19848;SDS011;10085;51.120;6.956;2022-10-31T08:32:33;12.60;;;10.30;;
19848;SDS011;10085;51.120;6.956;2022-10-31T08:37:47;15.35;;;9.93;;
19848;SDS011;10085;51.120;6.956;2022-10-31T08:42:58;13.13;;;8.43;;
19848;SDS011;10085;51.120;6.956;2022-10-31T08:48:03;13.15;;;8.93;;
19848;SDS011;10085;51.120;6.956;2022-10-31T08:53:11;14.00;;;8.82;;
19848;SDS011;10085;51.120;6.956;2022-10-31T08:58:17;12.68;;;8.57;;
19848;SDS011;10085;51.120;6.956;2022-10-31T09:03:26;10.25;;;8.15;;
19848;SDS011;10085;51.120;6.956;2022-10-31T09:08:31;12.10;;;8.18;;
19848;SDS011;10085;51.120;6.956;2022-10-31T09:13:35;9.35;;;7.38;;
19848;SDS011;10085;51.120;6.956;2022-10-31T09:19:00;11.90;;;7.75;;
19848;SDS011;10085;51.120;6.956;2022-10-31T09:24:10;12.65;;;7.38;;
19848;SDS011;10085;51.120;6.956;2022-10-31T09:29:15;10.82;;;8.00;;
19848;SDS011;10085;51.120;6.956;2022-10-31T09:34:21;10.15;;;7.10;;
19848;SDS011;10085;51.120;6.956;2022-10-31T09:39:38;10.85;;;7.20;;
19848;SDS011;10085;51.120;6.956;2022-10-31T09:44:50;9.50;;;6.50;;
19848;SDS011;10085;51.120;6.956;2022-10-31T09:50:02;10.27;;;6.95;;
19848;SDS011;10085;51.120;6.956;2022-10-31T09:55:15;9.25;;;6.28;;
19848;SDS011;10085;51.120;6.956;2022-10-31T10:00:21;9.45;;;6.30;;
19848;SDS011;10085;51.120;6.956;2022-10-31T10:05:24;11.13;;;5.95;;
19848;SDS011;10085;51.120;6.956;2022-10-31T10:10:37;11.00;;;6.45;;
19848;SDS011;10085;51.120;6.956;2022-10-31T10:16:02;9.25;;;5.97;;
19848;SDS011;10085;51.120;6.956;2022-10-31T10:21:14;7.68;;;5.97;;
19848;SDS011;10085;51.120;6.956;2022-10-31T10:26:25;11.20;;;6.05;;
19848;SDS011;10085;51.120;6.956;2022-10-31T10:31:32;9.60;;;5.50;;
19848;SDS011;10085;51.120;6.956;2022-10-31T10:36:38;14.25;;;5.55;;
19848;SDS011;10085;51.120;6.956;2022-10-31T10:41:45;9.90;;;6.00;;
19848;SDS011;10085;51.120;6.956;2022-10-31T10:47:03;10.60;;;5.88;;
19848;SDS011;10085;51.120;6.956;2022-10-31T10:52:26;10.93;;;5.70;;
19848;SDS011;10085;51.120;6.956;2022-10-31T10:57:55;12.18;;;5.85;;
19848;SDS011;10085;51.120;6.956;2022-10-31T11:02:58;12.63;;;5.57;;
19848;SDS011;10085;51.120;6.956;2022-10-31T11:08:02;14.48;;;6.47;;
19848;SDS011;10085;51.120;6.956;2022-10-31T11:13:17;19.77;;;6.78;;
19848;SDS011;10085;51.120;6.956;2022-10-31T11:18:25;20.15;;;6.93;;
19848;SDS011;10085;51.120;6.956;2022-10-31T11:23:28;18.83;;;6.43;;
19848;SDS011;10085;51.120;6.956;2022-10-31T11:28:32;17.48;;;6.72;;
19848;SDS011;10085;51.120;6.956;2022-10-31T11:33:38;22.58;;;6.82;;
19848;SDS011;10085;51.120;6.956;2022-10-31T11:38:43;24.30;;;7.00;;
19848;SDS011;10085;51.120;6.956;2022-10-31T11:43:48;20.63;;;6.97;;
19848;SDS011;10085;51.120;6.956;2022-10-31T11:48:53;22.10;;;7.20;;
19848;SDS011;10085;51.120;6.956;2022-10-31T11:53:57;22.98;;;6.82;;
19848;SDS011;10085;51.120;6.956;2022-10-31T11:59:05;20.98;;;8.20;;
19848;SDS011;10085;51.120;6.956;2022-10-31T12:04:17;24.27;;;9.55;;
19848;SDS011;10085;51.120;6.956;2022-10-31T12:09:21;25.25;;;8.20;;
19848;SDS011;10085;51.120;6.956;2022-10-31T12:14:36;20.65;;;7.30;;
19848;SDS011;10085;51.120;6.956;2022-10-31T12:19:45;16.02;;;6.78;;
19848;SDS011;10085;51.120;6.956;2022-10-31T12:25:07;17.52;;;6.80;;
19848;SDS011;10085;51.120;6.956;2022-10-31T12:30:19;18.35;;;6.72;;
19848;SDS011;10085;51.120;6.956;2022-10-31T12:35:27;16.23;;;6.55;;
19848;SDS011;10085;51.120;6.956;2022-10-31T12:40:42;16.42;;;6.32;;
19848;SDS011;10085;51.120;6.956;2022-10-31T12:45:53;14.07;;;5.88;;
19848;SDS011;10085;51.120;6.956;2022-10-31T12:50:59;16.52;;;6.38;;
19848;SDS011;10085;51.120;6.956;2022-10-31T12:56:10;17.88;;;6.25;;
19848;SDS011;10085;51.120;6.956;2022-10-31T13:01:19;17.42;;;6.28;;
19848;SDS011;10085;51.120;6.956;2022-10-31T13:06:29;26.88;;;7.70;;
19848;SDS011;10085;51.120;6.956;2022-10-31T13:11:35;26.65;;;7.53;;
19848;SDS011;10085;51.120;6.956;2022-10-31T13:16:42;18.67;;;6.68;;
19848;SDS011;10085;51.120;6.956;2022-10-31T13:21:50;20.63;;;6.55;;
19848;SDS011;10085;51.120;6.956;2022-10-31T13:26:57;20.13;;;6.80;;
19848;SDS011;10085;51.120;6.956;2022-10-31T13:32:03;17.48;;;6.20;;
19848;SDS011;10085;51.120;6.956;2022-10-31T13:37:10;16.73;;;6.65;;
19848;SDS011;10085;51.120;6.956;2022-10-31T13:42:23;24.35;;;6.38;;
19848;SDS011;10085;51.120;6.956;2022-10-31T13:47:40;22.13;;;5.78;;
19848;SDS011;10085;51.120;6.956;2022-10-31T13:52:43;14.90;;;5.63;;
19848;SDS011;10085;51.120;6.956;2022-10-31T13:57:46;22.52;;;6.40;;
19848;SDS011;10085;51.120;6.956;2022-10-31T14:02:51;15.48;;;5.30;;
19848;SDS011;10085;51.120;6.956;2022-10-31T14:07:55;15.23;;;5.90;;
19848;SDS011;10085;51.120;6.956;2022-10-31T14:13:04;15.00;;;5.30;;
19848;SDS011;10085;51.120;6.956;2022-10-31T14:18:20;15.27;;;5.45;;
19848;SDS011;10085;51.120;6.956;2022-10-31T14:28:50;11.90;;;5.60;;
19848;SDS011;10085;51.120;6.956;2022-10-31T14:33:54;13.43;;;5.43;;
19848;SDS011;10085;51.120;6.956;2022-10-31T14:38:57;16.08;;;5.90;;
19848;SDS011;10085;51.120;6.956;2022-10-31T14:55:25;10.20;;;5.50;;
19848;SDS011;10085;51.120;6.956;2022-10-31T15:00:28;13.85;;;5.50;;
19848;SDS011;10085;51.120;6.956;2022-10-31T15:05:33;11.55;;;4.82;;
19848;SDS011;10085;51.120;6.956;2022-10-31T15:10:37;10.15;;;5.28;;
19848;SDS011;10085;51.120;6.956;2022-10-31T15:15:40;8.75;;;5.10;;
19848;SDS011;10085;51.120;6.956;2022-10-31T15:20:49;12.50;;;5.38;;
19848;SDS011;10085;51.120;6.956;2022-10-31T15:25:57;11.50;;;4.75;;
19848;SDS011;10085;51.120;6.956;2022-10-31T15:31:01;9.02;;;5.10;;
19848;SDS011;10085;51.120;6.956;2022-10-31T15:36:06;7.82;;;4.05;;
19848;SDS011;10085;51.120;6.956;2022-10-31T15:41:32;10.57;;;5.20;;
19848;SDS011;10085;51.120;6.956;2022-10-31T15:46:36;9.85;;;4.65;;
19848;SDS011;10085;51.120;6.956;2022-10-31T15:51:40;6.90;;;4.13;;
19848;SDS011;10085;51.120;6.956;2022-10-31T15:56:43;8.20;;;4.47;;
19848;SDS011;10085;51.120;6.956;2022-10-31T16:01:55;8.85;;;5.20;;
19848;SDS011;10085;51.120;6.956;2022-10-31T16:07:12;7.95;;;3.97;;
19848;SDS011;10085;51.120;6.956;2022-10-31T16:12:23;8.52;;;4.05;;
19848;SDS011;10085;51.120;6.956;2022-10-31T16:17:27;11.75;;;4.95;;
19848;SDS011;10085;51.120;6.956;2022-10-31T16:22:31;9.88;;;4.60;;
19848;SDS011;10085;51.120;6.956;2022-10-31T16:27:35;8.15;;;3.92;;
19848;SDS011;10085;51.120;6.956;2022-10-31T16:32:51;7.43;;;4.43;;
19848;SDS011;10085;51.120;6.956;2022-10-31T16:37:57;8.80;;;4.65;;
19848;SDS011;10085;51.120;6.956;2022-10-31T16:42:59;8.60;;;4.40;;
19848;SDS011;10085;51.120;6.956;2022-10-31T16:48:04;7.38;;;4.15;;
19848;SDS011;10085;51.120;6.956;2022-10-31T16:53:09;7.72;;;3.85;;
19848;SDS011;10085;51.120;6.956;2022-10-31T16:58:16;8.55;;;4.30;;
19848;SDS011;10085;51.120;6.956;2022-10-31T17:03:21;8.48;;;4.80;;
19848;SDS011;10085;51.120;6.956;2022-10-31T17:08:25;10.25;;;5.00;;
19848;SDS011;10085;51.120;6.956;2022-10-31T17:13:28;9.13;;;4.45;;
19848;SDS011;10085;51.120;6.956;2022-10-31T17:18:32;7.60;;;4.38;;
19848;SDS011;10085;51.120;6.956;2022-10-31T17:23:36;8.05;;;4.75;;
19848;SDS011;10085;51.120;6.956;2022-10-31T17:28:38;10.40;;;4.55;;
19848;SDS011;10085;51.120;6.956;2022-10-31T17:33:41;6.60;;;4.30;;
19848;SDS011;10085;51.120;6.956;2022-10-31T17:38:45;6.80;;;4.22;;
19848;SDS011;10085;51.120;6.956;2022-10-31T17:43:48;8.32;;;4.35;;
19848;SDS011;10085;51.120;6.956;2022-10-31T17:48:51;6.80;;;3.70;;
19848;SDS011;10085;51.120;6.956;2022-10-31T17:53:56;7.22;;;3.83;;
19848;SDS011;10085;51.120;6.956;2022-10-31T17:58:58;5.57;;;4.00;;
19848;SDS011;10085;51.120;6.956;2022-10-31T18:04:01;6.88;;;4.18;;
19848;SDS011;10085;51.120;6.956;2022-10-31T18:09:05;6.95;;;3.90;;
19848;SDS011;10085;51.120;6.956;2022-10-31T18:14:08;8.05;;;4.30;;
19848;SDS011;10085;51.120;6.956;2022-10-31T18:19:12;8.18;;;4.32;;
19848;SDS011;10085;51.120;6.956;2022-10-31T18:24:17;6.47;;;3.90;;
19848;SDS011;10085;51.120;6.956;2022-10-31T18:29:20;8.35;;;4.68;;
19848;SDS011;10085;51.120;6.956;2022-10-31T18:34:23;9.27;;;3.80;;
19848;SDS011;10085;51.120;6.956;2022-10-31T18:39:27;7.25;;;4.45;;
19848;SDS011;10085;51.120;6.956;2022-10-31T18:44:30;9.38;;;4.18;;
19848;SDS011;10085;51.120;6.956;2022-10-31T18:49:32;8.27;;;4.45;;
19848;SDS011;10085;51.120;6.956;2022-10-31T18:54:38;7.80;;;4.25;;
19848;SDS011;10085;51.120;6.956;2022-10-31T18:59:40;8.82;;;4.13;;
19848;SDS011;10085;51.120;6.956;2022-10-31T19:04:43;6.35;;;3.95;;
19848;SDS011;10085;51.120;6.956;2022-10-31T19:09:56;5.68;;;3.83;;
19848;SDS011;10085;51.120;6.956;2022-10-31T19:14:58;6.88;;;4.30;;
19848;SDS011;10085;51.120;6.956;2022-10-31T19:20:01;9.30;;;4.30;;
19848;SDS011;10085;51.120;6.956;2022-10-31T19:25:06;6.00;;;4.30;;
19848;SDS011;10085;51.120;6.956;2022-10-31T19:30:11;7.47;;;3.90;;
19848;SDS011;10085;51.120;6.956;2022-10-31T19:35:14;6.43;;;4.03;;
19848;SDS011;10085;51.120;6.956;2022-10-31T19:40:18;9.90;;;4.28;;
19848;SDS011;10085;51.120;6.956;2022-10-31T19:45:21;7.55;;;3.95;;
19848;SDS011;10085;51.120;6.956;2022-10-31T19:50:24;10.00;;;4.13;;
19848;SDS011;10085;51.120;6.956;2022-10-31T19:55:29;7.30;;;4.00;;
19848;SDS011;10085;51.120;6.956;2022-10-31T20:00:31;6.50;;;3.92;;
19848;SDS011;10085;51.120;6.956;2022-10-31T20:05:37;7.45;;;3.92;;
19848;SDS011;10085;51.120;6.956;2022-10-31T20:10:51;7.47;;;3.50;;
19848;SDS011;10085;51.120;6.956;2022-10-31T20:15:56;5.32;;;3.55;;
19848;SDS011;10085;51.120;6.956;2022-10-31T20:21:00;7.90;;;3.83;;
19848;SDS011;10085;51.120;6.956;2022-10-31T20:26:07;6.70;;;3.95;;
19848;SDS011;10085;51.120;6.956;2022-10-31T20:31:12;6.25;;;3.78;;
19848;SDS011;10085;51.120;6.956;2022-10-31T20:36:16;6.85;;;3.97;;
19848;SDS011;10085;51.120;6.956;2022-10-31T20:41:22;4.82;;;3.58;;
19848;SDS011;10085;51.120;6.956;2022-10-31T20:46:25;6.50;;;3.92;;
19848;SDS011;10085;51.120;6.956;2022-10-31T20:51:28;7.40;;;3.83;;
19848;SDS011;10085;51.120;6.956;2022-10-31T20:56:33;6.35;;;3.75;;
19848;SDS011;10085;51.120;6.956;2022-10-31T21:01:35;6.32;;;3.78;;
19848;SDS011;10085;51.120;6.956;2022-10-31T21:06:38;8.07;;;3.33;;
19848;SDS011;10085;51.120;6.956;2022-10-31T21:11:50;5.25;;;3.33;;
19848;SDS011;10085;51.120;6.956;2022-10-31T21:16:53;5.13;;;3.45;;
19848;SDS011;10085;51.120;6.956;2022-10-31T21:21:56;6.22;;;3.58;;
19848;SDS011;10085;51.120;6.956;2022-10-31T21:27:00;7.40;;;3.88;;
19848;SDS011;10085;51.120;6.956;2022-10-31T21:32:08;7.45;;;3.95;;
19848;SDS011;10085;51.120;6.956;2022-10-31T21:37:11;6.15;;;3.58;;
19848;SDS011;10085;51.120;6.956;2022-10-31T21:42:15;7.05;;;3.88;;
19848;SDS011;10085;51.120;6.956;2022-10-31T21:47:22;7.05;;;4.13;;
19848;SDS011;10085;51.120;6.956;2022-10-31T21:52:24;6.30;;;3.70;;
19848;SDS011;10085;51.120;6.956;2022-10-31T21:57:28;6.82;;;3.95;;
19848;SDS011;10085;51.120;6.956;2022-10-31T22:02:31;7.97;;;3.63;;
19848;SDS011;10085;51.120;6.956;2022-10-31T22:07:34;7.40;;;3.90;;
19848;SDS011;10085;51.120;6.956;2022-10-31T22:12:38;7.65;;;3.72;;
19848;SDS011;10085;51.120;6.956;2022-10-31T22:17:41;6.85;;;3.72;;
19848;SDS011;10085;51.120;6.956;2022-10-31T22:22:45;5.35;;;3.83;;
19848;SDS011;10085;51.120;6.956;2022-10-31T22:27:50;6.00;;;3.58;;
19848;SDS011;10085;51.120;6.956;2022-10-31T22:32:53;7.63;;;3.88;;
19848;SDS011;10085;51.120;6.956;2022-10-31T22:37:55;5.30;;;3.60;;
19848;SDS011;10085;51.120;6.956;2022-10-31T22:42:59;8.80;;;3.92;;
19848;SDS011;10085;51.120;6.956;2022-10-31T22:48:03;4.70;;;3.30;;
19848;SDS011;10085;51.120;6.956;2022-10-31T22:53:06;6.55;;;3.60;;
19848;SDS011;10085;51.120;6.956;2022-10-31T22:58:10;6.45;;;3.97;;
19848;SDS011;10085;51.120;6.956;2022-10-31T23:03:14;9.00;;;3.83;;
19848;SDS011;10085;51.120;6.956;2022-10-31T23:08:16;4.57;;;3.28;;
19848;SDS011;10085;51.120;6.956;2022-10-31T23:13:20;6.22;;;4.00;;
19848;SDS011;10085;51.120;6.956;2022-10-31T23:18:49;6.93;;;3.47;;
19848;SDS011;10085;51.120;6.956;2022-10-31T23:23:52;7.80;;;3.42;;
19848;SDS011;10085;51.120;6.956;2022-10-31T23:28:56;5.25;;;3.47;;
19848;SDS011;10085;51.120;6.956;2022-10-31T23:33:59;7.53;;;3.47;;
19848;SDS011;10085;51.120;6.956;2022-10-31T23:39:01;6.85;;;3.55;;
19848;SDS011;10085;51.120;6.956;2022-10-31T23:44:05;9.35;;;3.67;;
19848;SDS011;10085;51.120;6.956;2022-10-31T23:49:08;5.55;;;3.72;;
19848;SDS011;10085;51.120;6.956;2022-10-31T23:54:11;6.53;;;3.80;;
19848;SDS011;10085;51.120;6.956;2022-10-31T23:59:15;10.18;;;3.80;;
